Time;durP1;ratioP1;P1;durP2;ratioP2;P2;SDS_P1;SDS_P2;PMS_P1;PMS_P2;Temp;Humidity;BMP_temperature;BMP_pressure;BME280_temperature;BME280_humidity;BME280_pressure;Samples;Min_cycle;Max_cycle;Signal;HPM_P1;HPM_P2
2021/11/18 00:01:09;;;;;;;1999.90;999.90;;;;;;;;;;5018011;28;20373;-90
2021/11/18 00:03:36;;;;;;;1999.90;999.90;;;;;;;;;;5018507;28;20061;-89
2021/11/18 00:06:03;;;;;;;1999.90;999.90;;;;;;;;;;5018408;28;20116;-90
2021/11/18 00:08:32;;;;;;;1999.90;999.90;;;;;;;;;;5018011;28;20130;-90
2021/11/18 00:11:04;;;;;;;1999.90;999.90;;;;;;;;;;5001878;28;20037;-89
2021/11/18 00:13:32;;;;;;;;;;;;;;;;;;4985983;28;20257;-90
2021/11/18 00:16:00;;;;;;;1999.90;999.90;;;;;;;;;;5001532;28;19908;-89
2021/11/18 00:18:31;;;;;;;1999.90;999.90;;;;;;;;;;5017892;28;20055;-90
2021/11/18 00:20:57;;;;;;;1999.90;999.90;;;;;;;;;;4985385;28;20041;-89
2021/11/18 00:23:24;;;;;;;1999.90;999.90;;;;;;;;;;4999772;28;20034;-90
2021/11/18 00:25:49;;;;;;;1999.90;999.90;;;;;;;;;;5001245;28;20116;-90
2021/11/18 00:28:17;;;;;;;1999.90;999.90;;;;;;;;;;5017016;28;20116;-90
2021/11/18 00:30:44;;;;;;;1999.90;999.90;;;;;;;;;;5000936;28;20065;-90
2021/11/18 00:33:10;;;;;;;1999.90;999.90;;;;;;;;;;5017823;28;20033;-90
2021/11/18 00:35:37;;;;;;;1999.90;999.90;;;;;;;;;;5001422;28;20097;-90
2021/11/18 00:38:04;;;;;;;1999.90;999.90;;;;;;;;;;5001270;28;20404;-90
2021/11/18 00:40:34;;;;;;;1999.90;999.90;;;;;;;;;;5001259;28;20029;-90
2021/11/18 00:43:03;;;;;;;1999.90;999.90;;;;;;;;;;5001630;28;20036;-90
2021/11/18 00:45:31;;;;;;;1999.90;999.90;;;;;;;;;;5001038;28;20033;-90
2021/11/18 00:47:58;;;;;;;1999.90;999.90;;;;;;;;;;5001334;28;20117;-90
2021/11/18 00:50:32;;;;;;;1999.90;999.90;;;;;;;;;;5000921;28;20068;-90
2021/11/18 00:53:04;;;;;;;1999.90;999.90;;;;;;;;;;4981499;28;20030;-91
2021/11/18 00:55:32;;;;;;;1999.90;999.90;;;;;;;;;;4981306;28;20122;-90
2021/11/18 00:57:59;;;;;;;1999.90;999.90;;;;;;;;;;4997389;28;20032;-90
2021/11/18 01:00:27;;;;;;;1999.90;999.90;;;;;;;;;;4985440;28;20034;-90
2021/11/18 01:02:56;;;;;;;1999.90;999.90;;;;;;;;;;4997525;28;20034;-90
2021/11/18 01:05:25;;;;;;;1999.90;999.90;;;;;;;;;;4981385;28;20034;-90
2021/11/18 01:07:54;;;;;;;1999.90;999.90;;;;;;;;;;4982786;28;20111;-90
2021/11/18 01:10:21;;;;;;;1999.90;999.90;;;;;;;;;;5001088;28;20065;-90
2021/11/18 01:12:49;;;;;;;1999.90;999.90;;;;;;;;;;5016738;28;20109;-91
2021/11/18 01:15:19;;;;;;;1999.90;999.90;;;;;;;;;;4984438;28;20114;-90
2021/11/18 01:17:47;;;;;;;1999.90;999.90;;;;;;;;;;4984742;28;20025;-90
2021/11/18 01:20:14;;;;;;;1999.90;999.90;;;;;;;;;;4981304;28;20050;-91
2021/11/18 01:22:40;;;;;;;1999.90;999.90;;;;;;;;;;4980208;28;20548;-90
2021/11/18 01:25:07;;;;;;;1999.90;999.90;;;;;;;;;;5000285;28;20080;-91
2021/11/18 01:27:35;;;;;;;1999.90;999.90;;;;;;;;;;5016525;28;20033;-90
2021/11/18 01:30:10;;;;;;;1999.90;999.90;;;;;;;;;;5016221;28;20053;-91
2021/11/18 01:32:35;;;;;;;1999.90;999.90;;;;;;;;;;5000245;28;20041;-91
2021/11/18 01:35:01;;;;;;;1999.90;999.90;;;;;;;;;;4986468;28;20049;-90
2021/11/18 01:37:28;;;;;;;1999.90;999.90;;;;;;;;;;5019248;28;20072;-90
2021/11/18 01:39:55;;;;;;;1999.90;999.90;;;;;;;;;;4974977;28;20087;-90
2021/11/18 01:42:21;;;;;;;1999.90;999.90;;;;;;;;;;5012547;28;20041;-90
2021/11/18 01:44:49;;;;;;;1999.90;999.90;;;;;;;;;;5010506;28;20044;-89
2021/11/18 01:47:15;;;;;;;1999.90;999.90;;;;;;;;;;4999808;28;20029;-89
2021/11/18 01:49:44;;;;;;;1999.90;999.90;;;;;;;;;;5015997;28;20037;-88
2021/11/18 01:52:14;;;;;;;1999.90;999.90;;;;;;;;;;4983554;28;20038;-90
2021/11/18 01:54:41;;;;;;;1999.90;999.90;;;;;;;;;;5016036;28;20036;-89
2021/11/18 01:57:11;;;;;;;1999.90;999.90;;;;;;;;;;4999583;28;20057;-89
2021/11/18 01:59:40;;;;;;;1999.90;999.90;;;;;;;;;;4999627;28;20061;-90
2021/11/18 02:02:07;;;;;;;1999.90;999.90;;;;;;;;;;4983117;28;20034;-90
2021/11/18 02:04:33;;;;;;;1999.90;999.90;;;;;;;;;;4983146;28;20068;-90
2021/11/18 02:07:04;;;;;;;1999.90;999.90;;;;;;;;;;4985309;28;20033;-90
2021/11/18 02:09:35;;;;;;;1999.90;999.90;;;;;;;;;;4996199;28;20042;-90
2021/11/18 02:12:03;;;;;;;1999.90;999.90;;;;;;;;;;4964154;28;20033;-88
2021/11/18 02:14:32;;;;;;;1999.90;999.90;;;;;;;;;;4980106;28;20053;-90
2021/11/18 02:17:01;;;;;;;1999.90;999.90;;;;;;;;;;4980407;28;20037;-90
2021/11/18 02:19:37;;;;;;;1999.90;999.90;;;;;;;;;;4979841;28;20588;-89
2021/11/18 02:22:02;;;;;;;1999.90;999.90;;;;;;;;;;4999362;28;20123;-90
2021/11/18 02:24:32;;;;;;;1999.90;999.90;;;;;;;;;;5015717;28;20079;-91
2021/11/18 02:26:59;;;;;;;1999.90;999.90;;;;;;;;;;5015766;28;20029;-90
2021/11/18 02:29:25;;;;;;;1999.90;999.90;;;;;;;;;;4999128;28;20040;-89
2021/11/18 02:32:08;;;;;;;1999.90;999.90;;;;;;;;;;4982944;28;20026;-87
2021/11/18 02:34:54;;;;;;;;;;;;;;;;;;4983692;28;20060;-90
2021/11/18 02:37:20;;;;;;;1999.90;999.90;;;;;;;;;;5030210;28;19912;-90
2021/11/18 02:39:46;;;;;;;1999.90;999.90;;;;;;;;;;5000342;28;20056;-90
2021/11/18 02:42:13;;;;;;;1999.90;999.90;;;;;;;;;;4982764;28;20102;-90
2021/11/18 02:44:42;;;;;;;1999.90;999.90;;;;;;;;;;4998956;28;20025;-89
2021/11/18 02:47:13;;;;;;;1999.90;999.90;;;;;;;;;;4998915;28;20068;-90
2021/11/18 02:49:45;;;;;;;1999.90;999.90;;;;;;;;;;4999077;28;20495;-89
2021/11/18 02:52:18;;;;;;;1999.90;999.90;;;;;;;;;;5014766;28;20592;-90
2021/11/18 02:54:46;;;;;;;1999.90;999.90;;;;;;;;;;4998972;28;20557;-90
2021/11/18 02:57:12;;;;;;;1999.90;999.90;;;;;;;;;;4998628;28;20037;-90
2021/11/18 02:59:41;;;;;;;1999.90;999.90;;;;;;;;;;4982107;28;20033;-90
2021/11/18 03:02:06;;;;;;;1999.90;999.90;;;;;;;;;;5011214;28;20127;-90
2021/11/18 03:04:35;;;;;;;1999.90;999.90;;;;;;;;;;5002238;28;20033;-90
2021/11/18 03:07:02;;;;;;;1999.90;999.90;;;;;;;;;;5019067;28;20044;-89
2021/11/18 03:09:28;;;;;;;1999.90;999.90;;;;;;;;;;4983131;28;20034;-90
2021/11/18 03:11:55;;;;;;;1999.90;999.90;;;;;;;;;;4999246;28;20037;-89
2021/11/18 03:14:27;;;;;;;1999.90;999.90;;;;;;;;;;4998943;28;20038;-90
2021/11/18 03:16:54;;;;;;;1999.90;999.90;;;;;;;;;;5018818;28;20045;-88
2021/11/18 03:19:22;;;;;;;1999.90;999.90;;;;;;;;;;4986559;28;20043;-90
2021/11/18 03:21:48;;;;;;;1999.90;999.90;;;;;;;;;;5002579;28;20044;-90
2021/11/18 03:24:19;;;;;;;1999.90;999.90;;;;;;;;;;5002337;28;20029;-89
2021/11/18 03:26:46;;;;;;;1999.90;999.90;;;;;;;;;;4986405;28;20030;-89
2021/11/18 03:29:11;;;;;;;1999.90;999.90;;;;;;;;;;5002411;28;20053;-90
2021/11/18 03:31:40;;;;;;;1999.90;999.90;;;;;;;;;;4985948;28;20037;-90
2021/11/18 03:34:14;;;;;;;1999.90;999.90;;;;;;;;;;5002289;28;20044;-90
2021/11/18 03:36:40;;;;;;;1999.90;999.90;;;;;;;;;;5002620;28;20132;-90
2021/11/18 03:39:08;;;;;;;1999.90;999.90;;;;;;;;;;5018621;28;20125;-90
2021/11/18 03:41:36;;;;;;;1999.90;999.90;;;;;;;;;;5018850;28;20491;-90
2021/11/18 03:44:05;;;;;;;1999.90;999.90;;;;;;;;;;4986074;28;20068;-91
2021/11/18 03:46:38;;;;;;;1999.90;999.90;;;;;;;;;;5018219;28;20037;-90
2021/11/18 03:49:05;;;;;;;1999.90;999.90;;;;;;;;;;4986254;28;20033;-90
2021/11/18 03:51:32;;;;;;;1999.90;999.90;;;;;;;;;;5018302;28;20130;-90
2021/11/18 03:54:01;;;;;;;1999.90;999.90;;;;;;;;;;5002896;28;20403;-90
2021/11/18 03:56:29;;;;;;;1999.90;999.90;;;;;;;;;;5002189;28;20077;-89
2021/11/18 03:58:54;;;;;;;1999.90;999.90;;;;;;;;;;5002308;28;20061;-90
2021/11/18 04:01:23;;;;;;;1999.90;999.90;;;;;;;;;;5017835;28;20083;-90
2021/11/18 04:03:54;;;;;;;1999.90;999.90;;;;;;;;;;5018275;28;20033;-90
2021/11/18 04:06:22;;;;;;;1999.90;999.90;;;;;;;;;;5018434;28;20038;-90
2021/11/18 04:08:47;;;;;;;1999.90;999.90;;;;;;;;;;4985325;28;20496;-90
2021/11/18 04:11:15;;;;;;;1999.90;999.90;;;;;;;;;;4985389;28;20029;-89
2021/11/18 04:13:43;;;;;;;1999.90;999.90;;;;;;;;;;4982039;28;20461;-90
2021/11/18 04:16:11;;;;;;;1999.90;999.90;;;;;;;;;;4982046;28;20045;-89
2021/11/18 04:18:37;;;;;;;1999.90;999.90;;;;;;;;;;4998210;28;20040;-90
2021/11/18 04:21:04;;;;;;;1999.90;999.90;;;;;;;;;;4981926;28;20041;-90
2021/11/18 04:23:30;;;;;;;1999.90;999.90;;;;;;;;;;5000789;28;20037;-90
2021/11/18 04:25:56;;;;;;;1999.90;999.90;;;;;;;;;;5014884;28;20033;-90
2021/11/18 04:28:25;;;;;;;1999.90;999.90;;;;;;;;;;5003854;28;20056;-90
2021/11/18 04:30:55;;;;;;;1999.90;999.90;;;;;;;;;;5001097;28;20120;-91
2021/11/18 04:33:23;;;;;;;1999.90;999.90;;;;;;;;;;5001289;28;20045;-91
2021/11/18 04:35:52;;;;;;;1999.90;999.90;;;;;;;;;;5001171;28;20116;-91
2021/11/18 04:38:21;;;;;;;1999.90;999.90;;;;;;;;;;5001466;28;20025;-91
2021/11/18 04:40:49;;;;;;;1999.90;999.90;;;;;;;;;;5000973;28;20179;-91
2021/11/18 04:43:17;;;;;;;1999.90;999.90;;;;;;;;;;5000700;28;20034;-91
2021/11/18 04:45:42;;;;;;;1999.90;999.90;;;;;;;;;;4991055;28;20034;-91
2021/11/18 04:48:11;;;;;;;1999.90;999.90;;;;;;;;;;4984128;28;20044;-91
2021/11/18 04:50:39;;;;;;;1999.90;999.90;;;;;;;;;;5016944;28;20129;-91
2021/11/18 04:53:06;;;;;;;1999.90;999.90;;;;;;;;;;5017023;28;20052;-90
2021/11/18 04:55:32;;;;;;;1999.90;999.90;;;;;;;;;;5016870;28;20033;-90
2021/11/18 04:57:58;;;;;;;1999.90;999.90;;;;;;;;;;4984328;28;20036;-90
2021/11/18 05:00:34;;;;;;;1999.90;999.90;;;;;;;;;;5017030;28;20128;-90
2021/11/18 05:03:01;;;;;;;1999.90;999.90;;;;;;;;;;4984888;28;20025;-90
2021/11/18 05:05:26;;;;;;;1999.90;999.90;;;;;;;;;;5000436;28;20029;-90
2021/11/18 05:07:58;;;;;;;1999.90;999.90;;;;;;;;;;4984126;28;20462;-90
2021/11/18 05:10:27;;;;;;;1999.90;999.90;;;;;;;;;;5000341;28;20495;-89
2021/11/18 05:12:53;;;;;;;1999.90;999.90;;;;;;;;;;5016662;28;20276;-90
2021/11/18 05:15:22;;;;;;;1999.90;999.90;;;;;;;;;;5000836;28;20030;-89
2021/11/18 05:17:50;;;;;;;1999.90;999.90;;;;;;;;;;5000774;28;20120;-89
2021/11/18 05:20:17;;;;;;;1999.90;999.90;;;;;;;;;;4999701;28;20044;-89
2021/11/18 05:22:47;;;;;;;1999.90;999.90;;;;;;;;;;5000362;28;20040;-89
2021/11/18 05:25:16;;;;;;;1999.90;999.90;;;;;;;;;;4996959;28;20084;-90
2021/11/18 05:27:43;;;;;;;1999.90;999.90;;;;;;;;;;4996550;28;20500;-89
2021/11/18 05:30:09;;;;;;;1999.90;999.90;;;;;;;;;;4995712;28;20065;-90
2021/11/18 05:32:36;;;;;;;1999.90;999.90;;;;;;;;;;4996756;28;20060;-89
2021/11/18 05:35:05;;;;;;;1999.90;999.90;;;;;;;;;;4996906;28;20124;-89
2021/11/18 05:37:33;;;;;;;1999.90;999.90;;;;;;;;;;4996841;28;20128;-89
2021/11/18 05:40:00;;;;;;;1999.90;999.90;;;;;;;;;;4996944;28;20033;-90
2021/11/18 05:42:26;;;;;;;1999.90;999.90;;;;;;;;;;4979907;28;20038;-90
2021/11/18 05:44:52;;;;;;;1999.90;999.90;;;;;;;;;;4980431;28;20072;-90
2021/11/18 05:47:18;;;;;;;1999.90;999.90;;;;;;;;;;4972965;28;20062;-90
2021/11/18 05:49:43;;;;;;;1999.90;999.90;;;;;;;;;;4999133;28;20120;-88
2021/11/18 05:52:09;;;;;;;1999.90;999.90;;;;;;;;;;4995829;28;20041;-85
2021/11/18 05:54:34;;;;;;;1999.90;999.90;;;;;;;;;;4998400;28;20469;-84
2021/11/18 05:57:00;;;;;;;1999.90;999.90;;;;;;;;;;5014619;28;20128;-86
2021/11/18 05:59:25;;;;;;;1999.90;999.90;;;;;;;;;;5015017;28;20063;-86
2021/11/18 06:01:51;;;;;;;1999.90;999.90;;;;;;;;;;5015070;28;20037;-87
2021/11/18 06:04:17;;;;;;;1999.90;999.90;;;;;;;;;;4982604;28;20072;-86
2021/11/18 06:06:43;;;;;;;1999.90;999.90;;;;;;;;;;5014835;28;20052;-87
2021/11/18 06:09:11;;;;;;;1999.90;999.90;;;;;;;;;;4998792;28;20385;-92
2021/11/18 06:11:39;;;;;;;1999.90;999.90;;;;;;;;;;4982807;28;20049;-88
2021/11/18 06:14:06;;;;;;;1999.90;999.90;;;;;;;;;;4982824;28;20060;-87
2021/11/18 06:16:33;;;;;;;1999.90;999.90;;;;;;;;;;5014581;28;20046;-86
2021/11/18 06:19:01;;;;;;;1999.90;999.90;;;;;;;;;;4981945;28;20025;-85
2021/11/18 06:21:28;;;;;;;1999.90;999.90;;;;;;;;;;4982520;28;20037;-83
2021/11/18 06:23:53;;;;;;;1999.90;999.90;;;;;;;;;;4998096;28;20022;-85
2021/11/18 06:26:18;;;;;;;1999.90;999.90;;;;;;;;;;4997739;28;20451;-85
2021/11/18 06:28:45;;;;;;;1999.90;999.90;;;;;;;;;;4981853;28;20029;-87
2021/11/18 06:31:13;;;;;;;1999.90;999.90;;;;;;;;;;4981655;28;20143;-86
2021/11/18 06:33:38;;;;;;;1999.90;999.90;;;;;;;;;;4981358;28;20045;-86
2021/11/18 06:36:04;;;;;;;1999.90;999.90;;;;;;;;;;4989904;28;20475;-86
2021/11/18 06:38:29;;;;;;;1999.90;999.90;;;;;;;;;;5000725;28;20163;-87
2021/11/18 06:40:55;;;;;;;1999.90;999.90;;;;;;;;;;4993194;28;20107;-86
2021/11/18 06:43:20;;;;;;;1999.90;999.90;;;;;;;;;;4993966;28;20038;-85
2021/11/18 06:45:46;;;;;;;1999.90;999.90;;;;;;;;;;4997179;28;20195;-85
2021/11/18 06:48:20;;;;;;;1999.90;999.90;;;;;;;;;;4994541;28;20069;-85
2021/11/18 06:50:46;;;;;;;1999.90;999.90;;;;;;;;;;4978664;28;20038;-86
2021/11/18 06:53:12;;;;;;;1999.90;999.90;;;;;;;;;;4994246;28;20036;-85
2021/11/18 06:55:37;;;;;;;1999.90;999.90;;;;;;;;;;4977837;28;20053;-86
2021/11/18 06:58:02;;;;;;;1999.90;999.90;;;;;;;;;;4994313;28;20030;-85
2021/11/18 07:00:28;;;;;;;1999.90;999.90;;;;;;;;;;4982869;28;20033;-86
2021/11/18 07:02:53;;;;;;;1999.90;999.90;;;;;;;;;;4996745;28;20029;-85
2021/11/18 07:05:19;;;;;;;1999.90;999.90;;;;;;;;;;5011792;28;20067;-87
2021/11/18 07:07:44;;;;;;;1999.90;999.90;;;;;;;;;;4977080;28;20018;-84
2021/11/18 07:10:10;;;;;;;1999.90;999.90;;;;;;;;;;4987480;28;20508;-84
2021/11/18 07:12:35;;;;;;;1999.90;999.90;;;;;;;;;;4994212;28;20558;-85
2021/11/18 07:15:01;;;;;;;1999.90;999.90;;;;;;;;;;4978061;28;20048;-83
2021/11/18 07:17:27;;;;;;;1999.90;999.90;;;;;;;;;;4990559;28;20173;-83
2021/11/18 07:19:52;;;;;;;1999.90;999.90;;;;;;;;;;5013027;28;20041;-82
2021/11/18 07:22:18;;;;;;;1999.90;999.90;;;;;;;;;;4997380;28;20063;-83
2021/11/18 07:24:43;;;;;;;1999.90;999.90;;;;;;;;;;5012996;28;20038;-86
2021/11/18 07:27:09;;;;;;;1999.90;999.90;;;;;;;;;;5013409;28;20034;-86
2021/11/18 07:29:34;;;;;;;1999.90;999.90;;;;;;;;;;5013015;28;20557;-85
2021/11/18 07:32:01;;;;;;;1999.90;999.90;;;;;;;;;;5013745;28;20469;-85
2021/11/18 07:34:26;;;;;;;1999.90;999.90;;;;;;;;;;4981414;28;20042;-85
2021/11/18 07:36:52;;;;;;;1999.90;999.90;;;;;;;;;;4997838;28;20143;-85
2021/11/18 07:39:19;;;;;;;1999.90;999.90;;;;;;;;;;5013053;28;20040;-85
2021/11/18 07:41:47;;;;;;;1999.90;999.90;;;;;;;;;;5013987;28;20040;-85
2021/11/18 07:44:13;;;;;;;1999.90;999.90;;;;;;;;;;5013666;28;20396;-85
2021/11/18 07:46:38;;;;;;;1999.90;999.90;;;;;;;;;;4997464;28;20041;-86
2021/11/18 07:49:04;;;;;;;1999.90;999.90;;;;;;;;;;4997377;28;20509;-85
2021/11/18 07:51:29;;;;;;;1999.90;999.90;;;;;;;;;;5013949;28;20037;-86
2021/11/18 07:53:55;;;;;;;1999.90;999.90;;;;;;;;;;5000254;28;20076;-85
2021/11/18 07:56:21;;;;;;;1999.90;999.90;;;;;;;;;;5016901;28;20030;-86
2021/11/18 07:58:49;;;;;;;1999.90;999.90;;;;;;;;;;5017188;28;20496;-85
2021/11/18 08:01:15;;;;;;;1999.90;999.90;;;;;;;;;;5016845;28;20034;-85
2021/11/18 08:03:40;;;;;;;1999.90;999.90;;;;;;;;;;5001023;28;20510;-86
2021/11/18 08:06:08;;;;;;;1999.90;999.90;;;;;;;;;;4984596;28;20029;-86
2021/11/18 08:08:33;;;;;;;1999.90;999.90;;;;;;;;;;5002126;28;20048;-85
2021/11/18 08:10:59;;;;;;;1999.90;999.90;;;;;;;;;;5003826;28;20496;-85
2021/11/18 08:13:24;;;;;;;1999.90;999.90;;;;;;;;;;5019695;28;20411;-84
2021/11/18 08:15:50;;;;;;;1999.90;999.90;;;;;;;;;;5037030;28;20490;-85
2021/11/18 08:18:15;;;;;;;1999.90;999.90;;;;;;;;;;5003824;28;20483;-84
2021/11/18 08:20:41;;;;;;;1999.90;999.90;;;;;;;;;;5003018;28;20049;-84
2021/11/18 08:23:06;;;;;;;1999.90;999.90;;;;;;;;;;5036654;28;20055;-85
2021/11/18 08:25:33;;;;;;;1999.90;999.90;;;;;;;;;;5019718;28;20041;-84
2021/11/18 08:27:59;;;;;;;1999.90;999.90;;;;;;;;;;5003547;28;20057;-85
2021/11/18 08:30:27;;;;;;;1999.90;999.90;;;;;;;;;;5003339;28;20422;-84
2021/11/18 08:32:54;;;;;;;1999.90;999.90;;;;;;;;;;5003317;28;20029;-85
2021/11/18 08:35:23;;;;;;;1999.90;999.90;;;;;;;;;;5003257;28;20091;-84
2021/11/18 08:37:49;;;;;;;1999.90;999.90;;;;;;;;;;5020473;28;20029;-84
2021/11/18 08:40:17;;;;;;;1999.90;999.90;;;;;;;;;;5003539;28;20064;-85
2021/11/18 08:42:44;;;;;;;1999.90;999.90;;;;;;;;;;5020480;28;20040;-85
2021/11/18 08:45:09;;;;;;;1999.90;999.90;;;;;;;;;;5019836;28;20037;-85
2021/11/18 08:47:35;;;;;;;1999.90;999.90;;;;;;;;;;5003392;28;20510;-86
2021/11/18 08:50:00;;;;;;;1999.90;999.90;;;;;;;;;;5002751;28;20407;-85
2021/11/18 08:52:28;;;;;;;1999.90;999.90;;;;;;;;;;5003325;28;20047;-85
2021/11/18 08:54:54;;;;;;;1999.90;999.90;;;;;;;;;;5019950;28;20137;-85
2021/11/18 08:57:20;;;;;;;1999.90;999.90;;;;;;;;;;5019464;28;20029;-85
2021/11/18 08:59:47;;;;;;;1999.90;999.90;;;;;;;;;;5019671;28;20090;-85
2021/11/18 09:02:17;;;;;;;1999.90;999.90;;;;;;;;;;4984061;28;20455;-85
2021/11/18 09:04:42;;;;;;;1999.90;999.90;;;;;;;;;;5015466;28;20458;-85
2021/11/18 09:07:07;;;;;;;1999.90;999.90;;;;;;;;;;4999795;28;20042;-85
2021/11/18 09:09:34;;;;;;;1999.90;999.90;;;;;;;;;;4999473;28;20029;-86
2021/11/18 09:12:00;;;;;;;1999.90;999.90;;;;;;;;;;4999649;28;20036;-85
2021/11/18 09:14:27;;;;;;;1999.90;999.90;;;;;;;;;;5015513;28;20029;-86
2021/11/18 09:16:54;;;;;;;1999.90;999.90;;;;;;;;;;4983386;28;20450;-85
2021/11/18 09:19:22;;;;;;;1999.90;999.90;;;;;;;;;;4983253;28;20048;-85
2021/11/18 09:21:49;;;;;;;1999.90;999.90;;;;;;;;;;4999761;28;20030;-86
2021/11/18 09:24:22;;;;;;;1999.90;999.90;;;;;;;;;;5015713;28;20126;-86
2021/11/18 09:26:51;;;;;;;1999.90;999.90;;;;;;;;;;4984034;28;20034;-85
2021/11/18 09:29:18;;;;;;;1999.90;999.90;;;;;;;;;;5015497;28;20118;-86
2021/11/18 09:31:43;;;;;;;1999.90;999.90;;;;;;;;;;5015149;28;20470;-86
2021/11/18 09:34:09;;;;;;;1999.90;999.90;;;;;;;;;;4999094;28;20030;-86
2021/11/18 09:36:34;;;;;;;1999.90;999.90;;;;;;;;;;4999564;28;20539;-85
2021/11/18 09:39:00;;;;;;;1999.90;999.90;;;;;;;;;;4982895;28;20076;-86
2021/11/18 09:41:26;;;;;;;1999.90;999.90;;;;;;;;;;5015341;28;20056;-86
2021/11/18 09:44:29;;;;;;;1999.90;999.90;;;;;;;;;;5015032;28;20041;-86
2021/11/18 09:46:55;;;;;;;;;;;;;;;;;;5015973;28;20488;-86
2021/11/18 09:49:39;;;;;;;1999.90;999.90;;;;;;;;;;5014942;28;19925;-85
2021/11/18 09:52:27;;;;;;;1999.90;999.90;;;;;;;;;;5015112;28;20132;-86
2021/11/18 09:54:57;;;;;;;1999.90;999.90;;;;;;;;;;4983153;28;20029;-86
2021/11/18 09:57:40;;;;;;;1999.90;999.90;;;;;;;;;;4999291;28;20048;-86
2021/11/18 10:00:05;;;;;;;1999.90;999.90;;;;;;;;;;5014848;28;20036;-86
2021/11/18 10:02:55;;;;;;;1999.90;999.90;;;;;;;;;;5014819;28;20049;-86
2021/11/18 10:05:31;;;;;;;1999.90;999.90;;;;;;;;;;5000911;28;20022;-86
2021/11/18 10:08:08;;;;;;;1999.90;999.90;;;;;;;;;;4998699;28;20160;-86
2021/11/18 10:10:52;;;;;;;1999.90;999.90;;;;;;;;;;5014815;28;20030;-86
2021/11/18 10:13:20;;;;;;;1999.90;999.90;;;;;;;;;;4999182;28;20048;-86
2021/11/18 10:15:48;;;;;;;1999.90;999.90;;;;;;;;;;5014354;28;20033;-86
2021/11/18 10:18:25;;;;;;;1999.90;999.90;;;;;;;;;;4998631;28;20037;-86
2021/11/18 10:20:56;;;;;;;1999.90;999.90;;;;;;;;;;4982318;28;20063;-87
2021/11/18 10:23:24;;;;;;;1999.90;999.90;;;;;;;;;;4982507;28;20064;-86
2021/11/18 10:26:00;;;;;;;1999.90;999.90;;;;;;;;;;4982777;28;20029;-86
2021/11/18 10:28:32;;;;;;;1999.90;999.90;;;;;;;;;;5014808;28;20087;-87
2021/11/18 10:31:16;;;;;;;1999.90;999.90;;;;;;;;;;4998917;28;20033;-86
2021/11/18 10:34:18;;;;;;;1999.90;999.90;;;;;;;;;;5014648;28;20061;-86
2021/11/18 10:37:06;;;;;;;1999.90;999.90;;;;;;;;;;5013267;28;20052;-86
2021/11/18 10:39:37;;;;;;;1999.90;999.90;;;;;;;;;;5031093;28;20052;-86
2021/11/18 10:42:12;;;;;;;1999.90;999.90;;;;;;;;;;5014472;28;20087;-86
2021/11/18 10:44:48;;;;;;;1999.90;999.90;;;;;;;;;;5031052;28;20099;-86
2021/11/18 10:47:22;;;;;;;1999.90;999.90;;;;;;;;;;4998508;28;20034;-86
2021/11/18 10:50:00;;;;;;;1999.90;999.90;;;;;;;;;;4983131;28;20137;-86
2021/11/18 10:52:31;;;;;;;1999.90;999.90;;;;;;;;;;5015051;28;20029;-86
2021/11/18 10:55:10;;;;;;;1999.90;999.90;;;;;;;;;;5030722;28;20056;-85
2021/11/18 10:57:36;;;;;;;1999.90;999.90;;;;;;;;;;4998240;28;20044;-87
2021/11/18 11:00:40;;;;;;;1999.90;999.90;;;;;;;;;;4998401;28;20042;-89
2021/11/18 11:03:48;;;;;;;1999.90;999.90;;;;;;;;;;5013688;28;20423;-89
2021/11/18 11:06:24;;;;;;;1999.90;999.90;;;;;;;;;;5000800;28;20041;-89
2021/11/18 11:09:15;;;;;;;1999.90;999.90;;;;;;;;;;5014438;28;20037;-89
2021/11/18 11:12:13;;;;;;;1999.90;999.90;;;;;;;;;;5015527;28;20033;-89
2021/11/18 11:14:50;;;;;;;1999.90;999.90;;;;;;;;;;5016401;28;20033;-89
2021/11/18 11:17:41;;;;;;;1999.90;999.90;;;;;;;;;;5014604;28;20026;-89
2021/11/18 11:20:06;;;;;;;1999.90;999.90;;;;;;;;;;5014636;28;20436;-89
2021/11/18 11:22:34;;;;;;;1999.90;999.90;;;;;;;;;;5014827;28;20037;-89
2021/11/18 11:25:06;;;;;;;1999.90;999.90;;;;;;;;;;5031212;28;20041;-89
2021/11/18 11:27:57;;;;;;;1999.90;999.90;;;;;;;;;;5016053;28;20041;-90
2021/11/18 11:30:29;;;;;;;1999.90;999.90;;;;;;;;;;5017872;28;20038;-89
2021/11/18 11:33:00;;;;;;;1999.90;999.90;;;;;;;;;;5018301;28;20029;-90
2021/11/18 11:35:55;;;;;;;1999.90;999.90;;;;;;;;;;5002667;28;20037;-89
2021/11/18 11:38:27;;;;;;;1999.90;999.90;;;;;;;;;;5018969;28;20042;-89
2021/11/18 11:40:59;;;;;;;1999.90;999.90;;;;;;;;;;5018199;28;20044;-90
2021/11/18 11:43:31;;;;;;;1999.90;999.90;;;;;;;;;;5001586;28;20388;-89
2021/11/18 11:46:20;;;;;;;1999.90;999.90;;;;;;;;;;5017033;28;20069;-89
2021/11/18 11:49:13;;;;;;;1999.90;999.90;;;;;;;;;;5001989;28;20034;-90
2021/11/18 11:52:28;;;;;;;1999.90;999.90;;;;;;;;;;5001508;28;20557;-87
2021/11/18 11:55:08;;;;;;;1999.90;999.90;;;;;;;;;;4973936;28;20054;-90
2021/11/18 11:57:57;;;;;;;1999.90;999.90;;;;;;;;;;5010709;28;20038;-87
2021/11/18 12:00:46;;;;;;;1999.90;999.90;;;;;;;;;;5002806;28;20037;-86
2021/11/18 12:03:24;;;;;;;1999.90;999.90;;;;;;;;;;5020367;28;20178;-86
2021/11/18 12:06:05;;;;;;;1999.90;999.90;;;;;;;;;;5017496;28;20373;-88
2021/11/18 12:08:41;;;;;;;1999.90;999.90;;;;;;;;;;5004912;28;20084;-88
2021/11/18 12:11:17;;;;;;;1999.90;999.90;;;;;;;;;;5016828;28;20451;-86
2021/11/18 12:13:57;;;;;;;1999.90;999.90;;;;;;;;;;5001282;28;20039;-86
2021/11/18 12:17:00;;;;;;;1999.90;999.90;;;;;;;;;;5000928;28;20029;-84
2021/11/18 12:19:37;;;;;;;1999.90;999.90;;;;;;;;;;4992235;28;20045;-85
2021/11/18 12:22:46;;;;;;;1999.90;999.90;;;;;;;;;;4986697;28;20124;-85
2021/11/18 12:25:20;;;;;;;1999.90;999.90;;;;;;;;;;5012779;28;20042;-85
2021/11/18 12:27:49;;;;;;;1999.90;999.90;;;;;;;;;;5008400;28;20033;-85
2021/11/18 12:30:46;;;;;;;1999.90;999.90;;;;;;;;;;5015665;28;20040;-84
2021/11/18 12:33:35;;;;;;;1999.90;999.90;;;;;;;;;;5015073;28;20049;-83
2021/11/18 12:36:17;;;;;;;1999.90;999.90;;;;;;;;;;5009518;28;20064;-83
2021/11/18 12:38:45;;;;;;;1999.90;999.90;;;;;;;;;;5018893;28;20073;-83
2021/11/18 12:41:36;;;;;;;1999.90;999.90;;;;;;;;;;5016329;28;20038;-83
2021/11/18 12:44:25;;;;;;;1999.90;999.90;;;;;;;;;;5022685;28;20045;-82
2021/11/18 12:47:02;;;;;;;1999.90;999.90;;;;;;;;;;5020670;28;20033;-82
2021/11/18 12:49:55;;;;;;;1999.90;999.90;;;;;;;;;;5035876;28;20061;-83
2021/11/18 12:52:35;;;;;;;1999.90;999.90;;;;;;;;;;5017946;28;20036;-83
2021/11/18 12:55:44;;;;;;;1999.90;999.90;;;;;;;;;;5003529;28;20036;-83
2021/11/18 12:58:24;;;;;;;1999.90;999.90;;;;;;;;;;5014401;28;20041;-83
2021/11/18 13:00:59;;;;;;;1999.90;999.90;;;;;;;;;;5027465;28;20080;-83
2021/11/18 13:03:46;;;;;;;1999.90;999.90;;;;;;;;;;4999277;28;20080;-82
2021/11/18 13:06:32;;;;;;;1999.90;999.90;;;;;;;;;;5017984;28;20415;-82
2021/11/18 13:09:08;;;;;;;1999.90;999.90;;;;;;;;;;5016358;28;20500;-83
2021/11/18 13:11:44;;;;;;;1999.90;999.90;;;;;;;;;;5019918;28;20119;-83
2021/11/18 13:14:13;;;;;;;1999.90;999.90;;;;;;;;;;5033582;28;20116;-82
2021/11/18 13:16:48;;;;;;;1999.90;999.90;;;;;;;;;;5001965;28;20415;-82
2021/11/18 13:19:35;;;;;;;1999.90;999.90;;;;;;;;;;5035874;28;20037;-83
2021/11/18 13:22:20;;;;;;;1999.90;999.90;;;;;;;;;;5031997;28;20041;-83
2021/11/18 13:25:08;;;;;;;1999.90;999.90;;;;;;;;;;5032153;28;20435;-84
2021/11/18 13:27:40;;;;;;;1999.90;999.90;;;;;;;;;;5017215;28;20030;-82
2021/11/18 13:30:28;;;;;;;1999.90;999.90;;;;;;;;;;5013408;28;20046;-83
2021/11/18 13:32:56;;;;;;;1999.90;999.90;;;;;;;;;;5023356;28;20029;-83
2021/11/18 13:35:32;;;;;;;1999.90;999.90;;;;;;;;;;4993502;28;20049;-84
2021/11/18 13:38:06;;;;;;;1999.90;999.90;;;;;;;;;;4994548;28;20132;-84
2021/11/18 13:40:32;;;;;;;1999.90;999.90;;;;;;;;;;5004951;28;20053;-83
2021/11/18 13:42:57;;;;;;;1999.90;999.90;;;;;;;;;;4998190;28;20095;-82
2021/11/18 13:45:27;;;;;;;1999.90;999.90;;;;;;;;;;5014752;28;20491;-83
2021/11/18 13:48:08;;;;;;;1999.90;999.90;;;;;;;;;;4998601;28;20136;-83
2021/11/18 13:50:49;;;;;;;1999.90;999.90;;;;;;;;;;4999289;28;20091;-83
2021/11/18 13:53:22;;;;;;;1999.90;999.90;;;;;;;;;;5032452;28;20037;-83
2021/11/18 13:56:03;;;;;;;1999.90;999.90;;;;;;;;;;4999175;28;20029;-83
2021/11/18 13:58:30;;;;;;;1999.90;999.90;;;;;;;;;;5015305;28;20040;-83
2021/11/18 14:00:57;;;;;;;1999.90;999.90;;;;;;;;;;4997879;28;20029;-83
2021/11/18 14:03:28;;;;;;;1999.90;999.90;;;;;;;;;;5014780;28;20554;-83